Time;durP1;ratioP1;P1;durP2;ratioP2;P2;SDS_P1;SDS_P2;PMS_P1;PMS_P2;Temp;Humidity;BMP_temperature;BMP_pressure;BME280_temperature;BME280_humidity;BME280_pressure;Samples;Min_cycle;Max_cycle;Signal;HPM_P1;HPM_P2
2021/09/18 00:00:19;;;;;;;16.40;5.70;;;;;;;21.21;69.91;96955.63;4998521;28;20570;-80
2021/09/18 00:02:45;;;;;;;23.45;5.68;;;;;;;21.19;69.52;96937.78;5015210;28;20067;-80
2021/09/18 00:05:11;;;;;;;21.30;5.85;;;;;;;21.33;69.95;96966.97;5015354;28;20408;-80
2021/09/18 00:07:36;;;;;;;21.27;5.15;;;;;;;21.29;69.71;96955.59;5015003;28;20032;-80
2021/09/18 00:10:03;;;;;;;13.98;4.97;;;;;;;21.40;69.62;96955.22;4998655;28;20109;-80
2021/09/18 00:12:29;;;;;;;21.65;5.80;;;;;;;21.44;69.59;96958.44;5014546;28;20025;-79
2021/09/18 00:14:54;;;;;;;18.25;5.80;;;;;;;21.39;69.56;96952.66;5014834;28;20492;-80
2021/09/18 00:17:20;;;;;;;15.27;5.65;;;;;;;21.48;69.32;96960.63;5032455;28;20416;-80
2021/09/18 00:19:45;;;;;;;20.60;6.28;;;;;;;21.47;69.27;96939.84;5032633;28;20032;-80
2021/09/18 00:22:11;;;;;;;20.17;5.65;;;;;;;21.41;69.01;96918.78;5014938;28;20025;-80
2021/09/18 00:24:46;;;;;;;21.40;5.78;;;;;;;21.62;68.47;96948.97;5015507;28;20017;-81
2021/09/18 00:27:12;;;;;;;17.02;5.20;;;;;;;21.40;68.39;96905.38;5018149;28;20029;-81
2021/09/18 00:30:01;;;;;;;18.52;5.40;;;;;;;21.70;68.18;96942.63;5034528;28;20025;-82
2021/09/18 00:32:26;;;;;;;21.83;5.78;;;;;;;21.43;67.30;96905.03;5017447;28;20047;-81
2021/09/18 00:34:52;;;;;;;22.40;5.45;;;;;;;21.60;66.95;96944.72;5014588;28;20109;-81
2021/09/18 00:38:01;;;;;;;20.70;5.68;;;;;;;21.35;67.12;96905.09;4999427;28;20108;-81
2021/09/18 00:41:04;;;;;;;20.05;5.13;;;;;;;21.59;67.25;96938.44;5016853;28;20029;-82
2021/09/18 00:43:30;;;;;;;28.67;5.45;;;;;;;21.52;67.76;96937.47;4972047;28;20031;-80
2021/09/18 00:45:56;;;;;;;18.20;5.28;;;;;;;21.35;68.18;96911.34;5007495;28;20084;-81
2021/09/18 00:48:21;;;;;;;20.75;5.43;;;;;;;21.37;68.18;96920.19;4998716;28;20112;-80
2021/09/18 00:50:47;;;;;;;31.42;5.78;;;;;;;21.38;68.24;96935.47;4998203;28;20475;-81
2021/09/18 00:53:12;;;;;;;21.55;4.95;;;;;;;21.27;68.83;96924.13;5014795;28;20484;-81
2021/09/18 00:55:41;;;;;;;17.10;5.22;;;;;;;21.39;68.38;96936.31;5032115;28;20108;-81
2021/09/18 00:58:07;;;;;;;19.20;5.13;;;;;;;21.26;69.23;96917.84;4998122;28;20048;-81
2021/09/18 01:00:33;;;;;;;13.70;4.72;;;;;;;21.12;68.93;96898.69;5014288;28;20029;-80
2021/09/18 01:02:58;;;;;;;19.88;4.95;;;;;;;21.18;69.44;96923.34;5014451;28;20025;-81
2021/09/18 01:05:24;;;;;;;18.23;4.70;;;;;;;21.05;70.16;96923.84;5014428;28;20029;-80
2021/09/18 01:07:51;;;;;;;20.45;5.25;;;;;;;21.08;70.66;96944.41;4997473;28;20473;-81
2021/09/18 01:10:16;;;;;;;18.33;5.28;;;;;;;20.73;71.78;96904.94;4997785;28;20029;-81
2021/09/18 01:13:09;;;;;;;16.42;5.18;;;;;;;20.92;72.39;96942.59;5014183;28;20022;-81
2021/09/18 01:15:36;;;;;;;17.90;5.07;;;;;;;20.94;72.52;96942.44;5014410;28;20017;-81
2021/09/18 01:18:03;;;;;;;17.08;5.22;;;;;;;21.00;72.33;96928.13;5032026;28;20515;-81
2021/09/18 01:20:29;;;;;;;17.02;5.45;;;;;;;20.82;72.49;96900.31;5017105;28;20026;-81
2021/09/18 01:22:59;;;;;;;23.33;4.95;;;;;;;20.97;72.87;96932.06;5014193;28;20029;-81
2021/09/18 01:25:26;;;;;;;21.10;5.20;;;;;;;21.00;73.26;96948.03;5027810;28;20017;-81
2021/09/18 01:27:52;;;;;;;21.02;5.00;;;;;;;20.87;72.64;96919.66;5030589;28;20029;-81
2021/09/18 01:30:20;;;;;;;23.83;5.80;;;;;;;21.04;73.22;96952.06;5032068;28;20021;-81
2021/09/18 01:32:47;;;;;;;17.00;5.45;;;;;;;21.12;72.20;96961.25;4997430;28;20049;-81
2021/09/18 01:35:13;;;;;;;22.67;5.03;;;;;;;21.04;73.26;96968.38;5014159;28;20045;-81
2021/09/18 01:37:38;;;;;;;20.80;5.18;;;;;;;20.76;76.57;96937.22;4997578;28;20025;-81
2021/09/18 01:40:04;;;;;;;15.18;5.65;;;;;;;20.84;78.39;96956.22;4998135;28;20072;-80
2021/09/18 01:42:30;;;;;;;20.83;5.80;;;;;;;20.97;79.53;96974.72;5001134;28;20021;-80
2021/09/18 01:44:55;;;;;;;17.17;5.43;;;;;;;20.90;83.26;96960.94;5017520;28;20105;-80
2021/09/18 01:47:21;;;;;;;25.35;5.88;;;;;;;20.84;84.55;96961.66;5001532;28;20435;-80
2021/09/18 01:49:46;;;;;;;17.20;6.13;;;;;;;20.98;84.40;96971.78;5017698;28;20029;-79
2021/09/18 01:52:31;;;;;;;23.60;6.88;;;;;;;20.84;88.03;96969.81;5017859;28;20036;-80
2021/09/18 01:54:57;;;;;;;15.82;6.10;;;;;;;20.76;93.64;96972.53;5020166;28;20025;-80
2021/09/18 01:57:22;;;;;;;24.17;6.28;;;;;;;20.73;91.84;96966.59;5017938;28;20454;-80
2021/09/18 01:59:48;;;;;;;23.63;6.05;;;;;;;20.63;93.82;96952.34;5035085;28;20021;-80
2021/09/18 02:02:13;;;;;;;19.58;6.13;;;;;;;20.62;90.63;96954.19;5017688;28;20080;-80
2021/09/18 02:04:39;;;;;;;20.23;6.28;;;;;;;20.70;91.40;96956.94;5017216;28;20040;-80
2021/09/18 02:07:04;;;;;;;22.55;5.40;;;;;;;20.53;91.79;96928.91;5035223;28;20025;-81
2021/09/18 02:09:30;;;;;;;22.63;6.47;;;;;;;20.60;90.91;96949.97;5035334;28;20122;-81
2021/09/18 02:11:55;;;;;;;23.08;7.40;;;;;;;20.50;89.94;96950.13;5017372;28;20159;-80
2021/09/18 02:14:21;;;;;;;21.75;6.95;;;;;;;20.35;93.61;96955.41;5034991;28;20171;-81
2021/09/18 02:16:46;;;;;;;18.00;7.07;;;;;;;20.17;91.46;96932.13;5034661;28;20029;-80
2021/09/18 02:19:12;;;;;;;22.05;7.30;;;;;;;20.25;90.88;96946.53;5016745;28;20025;-80
2021/09/18 02:21:37;;;;;;;19.17;6.68;;;;;;;20.25;92.07;96929.41;5017310;28;20087;-80
2021/09/18 02:24:03;;;;;;;22.95;7.03;;;;;;;20.13;91.45;96912.59;5005224;28;20031;-80
2021/09/18 02:26:28;;;;;;;22.02;7.53;;;;;;;20.20;91.57;96926.34;4985248;28;20558;-80
2021/09/18 02:28:54;;;;;;;16.67;6.65;;;;;;;20.15;91.14;96912.44;5000557;28;20025;-80
2021/09/18 02:31:19;;;;;;;29.02;6.78;;;;;;;20.11;89.55;96900.22;5034661;28;20411;-80
2021/09/18 02:33:45;;;;;;;20.50;6.07;;;;;;;20.21;89.60;96906.31;5016862;28;20037;-80
2021/09/18 02:36:10;;;;;;;24.40;6.00;;;;;;;20.25;88.25;96913.09;5000841;28;20033;-81
2021/09/18 02:38:36;;;;;;;20.13;6.40;;;;;;;20.45;86.34;96934.38;5000605;28;20061;-80
2021/09/18 02:41:02;;;;;;;22.80;6.18;;;;;;;20.45;86.28;96920.78;5016719;28;20108;-79
2021/09/18 02:43:27;;;;;;;15.88;7.18;;;;;;;20.64;88.75;96938.56;5016816;28;20032;-79
2021/09/18 02:45:54;;;;;;;29.45;5.95;;;;;;;20.63;88.69;96939.59;5016637;28;20025;-80
2021/09/18 02:48:19;;;;;;;17.58;5.68;;;;;;;20.57;87.47;96923.13;5033922;28;20515;-80
2021/09/18 02:50:45;;;;;;;28.52;6.15;;;;;;;20.68;87.21;96920.03;5016723;28;20022;-80
2021/09/18 02:53:11;;;;;;;18.80;5.00;;;;;;;20.81;83.89;96926.66;4998933;28;20025;-80
2021/09/18 02:55:37;;;;;;;24.17;5.72;;;;;;;20.81;88.06;96913.06;5016630;28;20021;-80
2021/09/18 02:58:02;;;;;;;20.83;5.75;;;;;;;20.95;88.87;96944.94;5033932;28;20026;-80
2021/09/18 03:00:28;;;;;;;22.55;5.95;;;;;;;20.78;82.77;96916.13;5034125;28;20032;-80
2021/09/18 03:02:53;;;;;;;21.75;5.32;;;;;;;20.93;83.02;96938.84;5000146;28;20555;-79
2021/09/18 03:05:19;;;;;;;19.30;5.53;;;;;;;20.84;85.25;96928.16;5016360;28;20108;-80
2021/09/18 03:07:44;;;;;;;21.83;5.45;;;;;;;20.75;85.26;96915.63;4999857;28;20033;-80
2021/09/18 03:10:11;;;;;;;16.27;4.90;;;;;;;20.87;85.69;96931.38;4999978;28;20025;-79
2021/09/18 03:12:37;;;;;;;18.70;5.22;;;;;;;20.69;85.83;96909.00;5016462;28;20021;-80
2021/09/18 03:15:03;;;;;;;21.02;5.13;;;;;;;20.85;85.58;96933.44;5016125;28;20022;-79
2021/09/18 03:17:29;;;;;;;19.10;5.30;;;;;;;20.76;86.56;96925.47;5000015;28;20524;-83
2021/09/18 03:19:56;;;;;;;18.23;4.75;;;;;;;20.50;86.96;96891.22;5033888;28;20021;-79
2021/09/18 03:22:21;;;;;;;17.95;6.03;;;;;;;20.72;86.68;96916.81;5016624;28;20100;-77
2021/09/18 03:24:47;;;;;;;21.70;5.50;;;;;;;20.53;87.38;96896.31;5016117;28;20101;-75
2021/09/18 03:27:14;;;;;;;18.10;5.97;;;;;;;20.43;88.79;96895.63;5033439;28;20481;-76
2021/09/18 03:29:40;;;;;;;22.42;5.47;;;;;;;20.35;89.43;96911.94;5033433;28;20552;-76
2021/09/18 03:32:05;;;;;;;18.75;6.25;;;;;;;20.19;91.89;96895.63;5033111;28;20129;-77
2021/09/18 03:34:31;;;;;;;25.02;6.90;;;;;;;20.09;92.24;96888.69;5015758;28;20029;-76
2021/09/18 03:36:57;;;;;;;28.73;6.38;;;;;;;20.22;88.74;96903.44;5015495;28;20029;-77
2021/09/18 03:39:22;;;;;;;20.33;6.25;;;;;;;20.19;91.05;96908.34;5015580;28;20577;-76
2021/09/18 03:41:48;;;;;;;22.30;5.80;;;;;;;20.15;90.06;96912.44;5033212;28;20036;-76
2021/09/18 03:44:13;;;;;;;18.30;5.93;;;;;;;19.99;91.28;96895.09;4998841;28;20039;-76
2021/09/18 03:46:39;;;;;;;18.73;4.82;;;;;;;20.03;86.64;96899.19;5033121;28;20467;-76
2021/09/18 03:49:05;;;;;;;17.67;4.40;;;;;;;20.05;85.72;96890.03;5015464;28;20025;-76
2021/09/18 03:51:30;;;;;;;15.60;4.80;;;;;;;20.26;83.88;96895.81;5015459;28;20030;-76
2021/09/18 03:53:56;;;;;;;14.77;4.00;;;;;;;20.16;82.98;96885.09;5015355;28;20405;-76
2021/09/18 03:56:21;;;;;;;19.95;5.28;;;;;;;20.20;81.75;96888.31;5032981;28;20033;-76
2021/09/18 03:58:47;;;;;;;15.95;5.90;;;;;;;20.32;84.67;96908.72;5032982;28;20025;-76
2021/09/18 04:01:12;;;;;;;20.05;5.65;;;;;;;20.25;86.06;96904.94;5015097;28;20036;-76
2021/09/18 04:03:38;;;;;;;22.63;4.90;;;;;;;20.19;85.40;96913.78;5014933;28;20523;-77
2021/09/18 04:06:03;;;;;;;27.00;5.15;;;;;;;20.19;87.93;96913.78;5032622;28;20167;-76
2021/09/18 04:08:29;;;;;;;14.93;4.97;;;;;;;20.17;87.67;96915.81;5015134;28;20025;-76
2021/09/18 04:10:54;;;;;;;21.40;5.80;;;;;;;20.29;87.46;96928.94;5032815;28;20507;-76
2021/09/18 04:13:20;;;;;;;24.60;8.10;;;;;;;20.35;87.48;96938.25;5014907;28;20026;-76
2021/09/18 04:15:46;;;;;;;20.00;5.95;;;;;;;20.28;88.01;96948.09;5032558;28;20037;-76
2021/09/18 04:18:12;;;;;;;17.63;5.40;;;;;;;20.26;87.32;96929.28;5014840;28;20408;-76
2021/09/18 04:20:37;;;;;;;25.52;7.95;;;;;;;20.34;87.00;96922.97;5014965;28;20030;-76
2021/09/18 04:23:03;;;;;;;27.90;6.50;;;;;;;20.53;87.83;96917.19;5014804;28;20033;-75
2021/09/18 04:25:28;;;;;;;29.38;10.98;;;;;;;20.49;87.20;96921.25;5014780;28;20080;-75
2021/09/18 04:27:54;;;;;;;23.55;6.53;;;;;;;20.51;85.45;96919.22;5014314;28;20025;-76
2021/09/18 04:30:20;;;;;;;28.73;5.88;;;;;;;20.61;83.36;96921.78;5014200;28;20040;-76
2021/09/18 04:32:45;;;;;;;21.55;6.07;;;;;;;20.73;83.40;96936.69;5014217;28;20056;-76
2021/09/18 04:35:11;;;;;;;20.90;6.15;;;;;;;20.75;84.59;96948.25;5031713;28;20025;-76
2021/09/18 04:37:38;;;;;;;16.33;5.85;;;;;;;20.77;85.10;96932.59;5031988;28;20036;-76
2021/09/18 04:40:04;;;;;;;27.42;6.80;;;;;;;20.87;84.87;96947.72;5014541;28;20036;-77
2021/09/18 04:42:29;;;;;;;27.98;5.63;;;;;;;20.84;83.41;96944.47;5031700;28;20041;-76
2021/09/18 04:44:55;;;;;;;24.77;9.52;;;;;;;20.68;85.33;96931.75;5014462;28;20481;-77
2021/09/18 04:47:20;;;;;;;35.88;16.80;;;;;;;20.74;85.47;96949.25;5031876;28;20396;-77
2021/09/18 04:49:46;;;;;;;33.35;15.20;;;;;;;20.66;83.00;96944.69;5032354;28;20562;-76
2021/09/18 04:52:11;;;;;;;22.20;6.95;;;;;;;20.76;81.71;96952.66;5031946;28;20060;-76
2021/09/18 04:54:37;;;;;;;30.85;8.98;;;;;;;20.76;81.61;96944.50;5014123;28;20030;-77
2021/09/18 04:57:03;;;;;;;18.00;6.57;;;;;;;20.79;79.94;96945.00;5032109;28;20041;-78
2021/09/18 04:59:28;;;;;;;15.52;5.88;;;;;;;20.97;78.39;96958.41;4997738;28;20029;-77
2021/09/18 05:01:54;;;;;;;22.13;7.60;;;;;;;21.12;78.28;96973.00;5032312;28;20096;-78
2021/09/18 05:04:19;;;;;;;17.92;6.45;;;;;;;21.15;78.91;96963.63;5014654;28;20033;-78
2021/09/18 05:06:45;;;;;;;23.88;5.38;;;;;;;21.31;78.46;96971.75;4997854;28;20515;-76
2021/09/18 05:09:10;;;;;;;20.35;6.45;;;;;;;21.41;76.87;96973.22;5014120;28;20411;-75
2021/09/18 05:11:36;;;;;;;30.30;9.13;;;;;;;21.58;76.72;96979.47;5013890;28;20029;-75
2021/09/18 05:14:02;;;;;;;31.45;7.72;;;;;;;21.61;78.71;96990.00;5013456;28;20030;-76
2021/09/18 05:16:27;;;;;;;32.38;8.00;;;;;;;21.41;81.43;96975.13;5015140;28;20045;-76
2021/09/18 05:18:53;;;;;;;30.50;8.57;;;;;;;21.36;83.26;96980.22;5017663;28;20025;-83
2021/09/18 05:21:18;;;;;;;31.15;8.00;;;;;;;21.11;86.67;96982.16;5018012;28;20475;-76
2021/09/18 05:23:44;;;;;;;26.67;9.13;;;;;;;20.76;91.30;96990.72;5025981;28;20087;-75
2021/09/18 05:26:11;;;;;;;24.85;9.05;;;;;;;20.73;93.94;97010.09;5017659;28;20108;-81
2021/09/18 05:28:37;;;;;;;36.83;13.75;;;;;;;20.52;98.00;96972.53;5015156;28;20456;-80
2021/09/18 05:31:02;;;;;;;34.30;11.07;;;;;;;20.53;100.00;96993.28;5016867;28;20026;-80
2021/09/18 05:33:28;;;;;;;25.25;9.75;;;;;;;20.44;100.00;96991.56;4999087;28;20119;-83
2021/09/18 05:35:53;;;;;;;29.48;9.02;;;;;;;20.36;100.00;96980.72;5000768;28;20037;-74
2021/09/18 05:38:19;;;;;;;29.60;8.43;;;;;;;20.15;100.00;96970.28;5034694;28;20091;-83
2021/09/18 05:40:44;;;;;;;22.27;8.93;;;;;;;19.91;100.00;96962.97;4999943;28;20504;-81
2021/09/18 05:43:10;;;;;;;19.33;8.63;;;;;;;19.84;100.00;96964.66;5000013;28;20460;-85
2021/09/18 05:45:35;;;;;;;26.80;9.98;;;;;;;19.74;100.00;96936.84;5000938;28;20382;-90
2021/09/18 05:48:04;;;;;;;36.92;8.60;;;;;;;19.91;100.00;96959.41;5017060;28;20480;-89
2021/09/18 05:50:31;;;;;;;18.02;9.50;;;;;;;20.06;100.00;96968.59;5016417;28;20113;-83
2021/09/18 05:52:56;;;;;;;26.10;9.40;;;;;;;20.13;100.00;96985.06;4999366;28;20033;-82
2021/09/18 05:55:22;;;;;;;42.10;15.80;;;;;;;20.23;100.00;96992.06;5016169;28;20043;-83
2021/09/18 05:57:47;;;;;;;27.13;10.85;;;;;;;20.22;100.00;97003.94;5016739;28;20064;-75
2021/09/18 06:00:13;;;;;;;37.03;12.32;;;;;;;20.27;100.00;96996.13;5015988;28;20518;-73
2021/09/18 06:02:41;;;;;;;41.45;15.77;;;;;;;20.36;100.00;96984.28;5016045;28;20124;-73
2021/09/18 06:05:08;;;;;;;31.30;11.52;;;;;;;20.66;100.00;96999.06;5033544;28;20017;-73
2021/09/18 06:07:34;;;;;;;24.73;9.43;;;;;;;20.94;100.00;97003.09;5015444;28;20112;-74
2021/09/18 06:09:59;;;;;;;27.05;10.10;;;;;;;21.03;99.57;97010.22;5015583;28;20160;-74
2021/09/18 06:12:25;;;;;;;27.33;9.63;;;;;;;20.92;100.00;96999.69;5015814;28;20416;-77
2021/09/18 06:14:50;;;;;;;29.02;12.98;;;;;;;21.14;100.00;97009.03;5033090;28;20037;-73
2021/09/18 06:17:16;;;;;;;23.95;11.02;;;;;;;21.49;100.00;97024.06;5032247;28;20069;-78
2021/09/18 06:19:41;;;;;;;23.30;9.45;;;;;;;21.94;93.43;97005.16;5015104;28;20063;-77
2021/09/18 06:22:07;;;;;;;23.80;8.55;;;;;;;22.17;90.66;96991.59;5033573;28;20037;-76
2021/09/18 06:24:32;;;;;;;31.65;12.38;;;;;;;22.34;87.46;96989.56;5000137;28;20424;-73
2021/09/18 06:26:58;;;;;;;25.50;9.90;;;;;;;23.60;83.45;97002.38;5015792;28;20026;-73
2021/09/18 06:29:26;;;;;;;18.85;8.45;;;;;;;26.51;66.26;97019.16;5033953;28;20033;-73
2021/09/18 06:31:52;;;;;;;24.58;8.02;;;;;;;28.87;56.98;97030.59;5033900;28;20067;-76
2021/09/18 06:34:17;;;;;;;24.95;8.15;;;;;;;31.12;48.72;97031.53;5034041;28;20560;-74
2021/09/18 06:36:43;;;;;;;19.77;7.30;;;;;;;32.98;43.55;97047.94;5016519;28;20038;-73
2021/09/18 06:39:08;;;;;;;19.23;6.85;;;;;;;33.43;41.04;97039.66;5033784;28;20404;-75
2021/09/18 06:41:34;;;;;;;17.77;6.38;;;;;;;32.72;42.68;97037.47;5016317;28;20029;-76
2021/09/18 06:43:59;;;;;;;11.60;4.85;;;;;;;32.62;39.16;97024.25;5016603;28;20080;-77
2021/09/18 06:46:25;;;;;;;21.10;5.82;;;;;;;31.54;43.58;97032.31;5033987;28;20083;-76
2021/09/18 06:48:50;;;;;;;15.90;6.20;;;;;;;30.97;43.85;97030.28;5032974;28;20029;-75
2021/09/18 06:51:16;;;;;;;15.02;4.82;;;;;;;30.06;44.82;97033.13;5034261;28;20036;-75
2021/09/18 06:53:42;;;;;;;11.23;4.85;;;;;;;29.71;44.52;97024.59;4999686;28;20080;-76
2021/09/18 06:56:07;;;;;;;11.13;4.15;;;;;;;29.43;45.93;97025.09;5015904;28;20037;-75
2021/09/18 06:58:33;;;;;;;11.73;4.40;;;;;;;28.45;47.90;97047.75;5032488;28;20397;-78
2021/09/18 07:00:58;;;;;;;12.77;4.43;;;;;;;28.80;49.22;97048.22;5033373;28;20033;-77
2021/09/18 07:03:25;;;;;;;13.20;4.68;;;;;;;31.26;43.70;97034.06;5015912;28;20068;-75
2021/09/18 07:05:51;;;;;;;11.15;3.70;;;;;;;33.14;39.62;97041.63;5033171;28;20040;-76
2021/09/18 07:08:16;;;;;;;12.73;4.63;;;;;;;33.45;38.14;97047.69;5015936;28;20030;-78
2021/09/18 07:10:42;;;;;;;9.45;4.82;;;;;;;34.32;36.33;97032.16;5033527;28;20087;-74
2021/09/18 07:13:07;;;;;;;9.77;4.88;;;;;;;34.79;36.23;97038.88;5033610;28;20064;-74
2021/09/18 07:15:33;;;;;;;18.45;5.82;;;;;;;34.48;35.63;97042.38;5033281;28;20025;-74
2021/09/18 07:17:58;;;;;;;19.30;5.70;;;;;;;33.49;39.01;97044.19;5033183;28;20033;-77
2021/09/18 07:20:24;;;;;;;32.15;7.22;;;;;;;32.42;40.53;97064.53;5033134;28;20114;-76
2021/09/18 07:22:49;;;;;;;21.13;9.05;;;;;;;32.21;39.59;97041.94;5014877;28;20030;-83
2021/09/18 07:25:15;;;;;;;11.30;4.07;;;;;;;32.81;38.19;97041.53;4995391;28;20478;-81
2021/09/18 07:27:41;;;;;;;14.15;4.50;;;;;;;34.35;35.57;97039.13;4993043;28;20025;-85
2021/09/18 07:30:07;;;;;;;22.75;6.85;;;;;;;35.10;34.75;97014.22;4998800;28;20091;-80
2021/09/18 07:32:33;;;;;;;13.32;4.00;;;;;;;36.56;31.76;97029.25;5015204;28;20060;-77
2021/09/18 07:35:00;;;;;;;12.40;4.20;;;;;;;36.98;30.89;97034.66;5014517;28;20424;-75
2021/09/18 07:37:43;;;;;;;11.63;4.35;;;;;;;36.78;31.15;97024.31;5016130;28;20109;-76
2021/09/18 07:40:11;;;;;;;17.58;4.90;;;;;;;35.32;33.10;97038.06;5014925;28;20033;-76
2021/09/18 07:42:37;;;;;;;19.60;4.90;;;;;;;33.58;36.02;97042.66;5015344;28;20087;-75
2021/09/18 07:45:04;;;;;;;16.70;5.55;;;;;;;33.46;37.08;97035.53;5015462;28;20017;-75
2021/09/18 07:47:30;;;;;;;17.05;5.22;;;;;;;32.82;37.25;97036.84;5015507;28;20119;-75
2021/09/18 07:49:55;;;;;;;30.00;7.70;;;;;;;33.32;37.67;97050.84;5014780;28;20061;-76
2021/09/18 07:52:21;;;;;;;21.50;5.95;;;;;;;32.50;39.27;97040.06;5015026;28;20551;-76
2021/09/18 07:54:46;;;;;;;24.08;6.75;;;;;;;31.37;41.22;97056.22;5001510;28;20121;-77
2021/09/18 07:57:12;;;;;;;17.55;6.80;;;;;;;30.63;42.83;97059.44;5003097;28;20412;-77
2021/09/18 07:59:38;;;;;;;15.70;5.18;;;;;;;30.21;43.30;97041.06;5013619;28;20021;-83
2021/09/18 08:02:04;;;;;;;20.77;5.47;;;;;;;30.16;44.43;97052.78;4981587;28;20037;-83
2021/09/18 08:04:29;;;;;;;18.90;5.30;;;;;;;29.99;44.97;97058.03;4991707;28;20025;-83
2021/09/18 08:06:55;;;;;;;17.52;5.43;;;;;;;30.54;44.00;97058.06;4981162;28;20386;-84
2021/09/18 08:09:20;;;;;;;18.20;5.07;;;;;;;32.90;39.21;97022.56;4998151;28;20033;-82
2021/09/18 08:11:46;;;;;;;21.45;5.95;;;;;;;32.66;39.91;97033.78;4998519;28;20037;-85
2021/09/18 08:14:11;;;;;;;19.88;6.93;;;;;;;31.65;41.86;97030.66;5014184;28;20033;-84
2021/09/18 08:16:37;;;;;;;25.33;5.93;;;;;;;31.25;42.15;97036.00;4997784;28;20056;-82
2021/09/18 08:19:03;;;;;;;14.57;5.35;;;;;;;32.56;40.03;97038.25;5014642;28;20140;-83
2021/09/18 08:21:28;;;;;;;22.92;5.85;;;;;;;32.42;40.99;97026.59;5012444;28;20057;-84
2021/09/18 08:23:54;;;;;;;21.33;5.93;;;;;;;33.54;38.10;97024.00;5014562;28;20033;-84
2021/09/18 08:26:19;;;;;;;19.13;6.03;;;;;;;33.97;36.48;97017.75;4998524;28;20071;-86
2021/09/18 08:28:45;;;;;;;15.20;5.78;;;;;;;35.44;34.64;97001.72;4998633;28;20346;-77
2021/09/18 08:31:10;;;;;;;21.83;5.53;;;;;;;36.64;32.92;97014.75;5014409;28;20124;-75
2021/09/18 08:33:36;;;;;;;15.23;4.97;;;;;;;36.76;32.25;97029.31;5014327;28;20077;-75
2021/09/18 08:36:02;;;;;;;24.08;6.90;;;;;;;36.96;32.13;97025.75;5014413;28;20183;-79
2021/09/18 08:38:28;;;;;;;19.23;4.97;;;;;;;36.27;32.79;97014.03;4997864;28;20091;-78
2021/09/18 08:40:54;;;;;;;11.65;5.28;;;;;;;36.51;33.07;97031.16;4997924;28;20397;-77
2021/09/18 08:43:20;;;;;;;16.95;7.03;;;;;;;36.70;33.21;97040.75;5009778;28;20034;-77
2021/09/18 08:45:47;;;;;;;19.00;6.20;;;;;;;34.48;36.36;97061.00;4991811;28;20111;-85
2021/09/18 08:48:44;;;;;;;15.20;5.45;;;;;;;32.25;39.39;97058.91;4998907;28;20041;-80
2021/09/18 08:51:10;;;;;;;19.35;6.05;;;;;;;32.51;39.40;97050.06;5000508;28;20033;-77
2021/09/18 08:53:36;;;;;;;18.90;8.43;;;;;;;33.16;38.20;97046.94;5015446;28;20029;-87
2021/09/18 08:56:02;;;;;;;15.90;5.20;;;;;;;31.72;40.48;97058.22;4996470;28;20439;-77
2021/09/18 08:58:27;;;;;;;9.93;5.40;;;;;;;32.94;38.48;97045.94;4997902;28;20029;-77
2021/09/18 09:00:55;;;;;;;17.52;6.38;;;;;;;34.00;36.66;97039.44;4997030;28;20029;-77
2021/09/18 09:03:29;;;;;;;23.88;6.00;;;;;;;35.07;34.87;97046.13;5014270;28;20021;-84
2021/09/18 09:06:11;;;;;;;15.80;5.55;;;;;;;34.19;35.71;97043.66;4989428;28;20057;-77
2021/09/18 09:08:38;;;;;;;14.20;6.13;;;;;;;34.63;35.26;97048.16;4999216;28;20149;-79
2021/09/18 09:11:19;;;;;;;16.70;6.22;;;;;;;34.76;34.92;97031.06;5008616;28;20041;-77
2021/09/18 09:13:57;;;;;;;14.85;7.18;;;;;;;34.64;35.78;97055.38;5006697;28;20025;-77
2021/09/18 09:16:23;;;;;;;11.18;6.43;;;;;;;33.91;35.75;97036.25;5011222;28;20417;-78
2021/09/18 09:18:48;;;;;;;23.13;6.45;;;;;;;33.63;36.67;97026.13;5012648;28;20033;-77
2021/09/18 09:21:23;;;;;;;13.27;6.03;;;;;;;32.65;38.51;97032.09;5030036;28;20489;-77
2021/09/18 09:24:14;;;;;;;15.55;6.88;;;;;;;32.59;38.73;97046.91;5014590;28;20029;-77
2021/09/18 09:27:03;;;;;;;25.87;7.30;;;;;;;32.40;38.73;97050.06;5010436;28;20036;-76
2021/09/18 09:29:52;;;;;;;22.13;5.85;;;;;;;30.93;41.11;97035.41;4993438;28;20029;-76
2021/09/18 09:32:35;;;;;;;17.23;6.45;;;;;;;30.80;41.63;97024.53;5010928;28;20521;-77
2021/09/18 09:35:04;;;;;;;15.85;6.72;;;;;;;30.89;41.42;97036.09;4996496;28;20038;-78
2021/09/18 09:37:30;;;;;;;13.15;6.82;;;;;;;30.54;42.42;97036.81;5010951;28;20036;-78
2021/09/18 09:40:01;;;;;;;18.67;7.05;;;;;;;29.91;43.64;97033.53;5013436;28;20029;-78
2021/09/18 09:42:35;;;;;;;15.75;8.60;;;;;;;29.33;45.36;97041.28;5013823;28;20029;-78
2021/09/18 09:45:12;;;;;;;19.88;7.78;;;;;;;28.88;46.84;97042.47;5008070;28;20052;-77
2021/09/18 09:47:38;;;;;;;18.13;8.10;;;;;;;28.48;48.73;97025.31;5020081;28;20164;-77
2021/09/18 09:50:05;;;;;;;14.52;8.85;;;;;;;28.29;49.52;97038.09;4979548;28;20083;-76
2021/09/18 09:52:33;;;;;;;25.65;7.85;;;;;;;28.17;49.79;97023.34;4991781;28;20128;-77
2021/09/18 09:55:10;;;;;;;30.90;13.75;;;;;;;28.36;49.02;97027.88;4996879;28;20080;-77
2021/09/18 09:57:37;;;;;;;11.90;7.85;;;;;;;28.18;49.21;97030.50;4981636;28;20029;-77
2021/09/18 10:00:16;;;;;;;20.10;9.80;;;;;;;27.90;50.61;97038.22;4997508;28;20033;-76
2021/09/18 10:02:43;;;;;;;23.27;9.70;;;;;;;27.58;50.90;97033.63;5016202;28;20443;-77
2021/09/18 10:05:13;;;;;;;19.65;8.93;;;;;;;27.56;51.37;97033.00;5035481;28;20025;-77
2021/09/18 10:07:39;;;;;;;15.48;7.57;;;;;;;27.01;52.99;97021.38;5017862;28;20024;-77
2021/09/18 10:10:06;;;;;;;19.45;8.77;;;;;;;26.74;54.08;97020.47;5018121;28;20025;-77
2021/09/18 10:12:33;;;;;;;14.85;9.02;;;;;;;26.69;54.46;97022.16;5001170;28;20057;-78
2021/09/18 10:15:07;;;;;;;22.10;12.02;;;;;;;26.39;54.74;97018.94;5034883;28;20029;-77
2021/09/18 10:17:36;;;;;;;17.83;7.57;;;;;;;26.17;55.51;97037.44;5014495;28;20036;-77
2021/09/18 10:20:13;;;;;;;24.48;11.95;;;;;;;26.01;57.01;97037.75;5015693;28;20040;-77
2021/09/18 10:25:34;;;;;;;22.10;8.55;;;;;;;25.70;59.06;97040.09;5014705;28;20029;-77
2021/09/18 10:28:14;;;;;;;22.27;10.73;;;;;;;25.65;59.74;97045.34;4982068;28;20065;-76
2021/09/18 10:30:48;;;;;;;28.50;10.82;;;;;;;25.38;60.64;97037.97;5028802;28;20542;-76
2021/09/18 10:33:29;;;;;;;22.27;10.88;;;;;;;25.18;61.61;97044.13;5000491;28;20077;-77
2021/09/18 10:36:16;;;;;;;17.92;9.38;;;;;;;25.17;61.59;97049.78;5028477;28;20109;-77
2021/09/18 10:39:03;;;;;;;20.52;9.70;;;;;;;25.07;62.41;97047.41;5026855;28;20041;-78
2021/09/18 10:41:59;;;;;;;17.27;9.40;;;;;;;25.16;65.04;97062.63;5011573;28;20033;-76
2021/09/18 10:44:45;;;;;;;20.02;10.10;;;;;;;25.23;67.29;97069.03;5025421;28;20125;-77
2021/09/18 10:47:10;;;;;;;17.50;9.77;;;;;;;24.86;68.79;97044.69;5012596;28;20029;-79
2021/09/18 10:49:52;;;;;;;19.38;11.10;;;;;;;24.62;69.42;97014.97;4983297;28;20037;-76
2021/09/18 10:52:17;;;;;;;19.90;10.13;;;;;;;24.74;71.61;97077.16;4998573;28;20501;-75
2021/09/18 10:55:08;;;;;;;21.45;11.45;;;;;;;24.48;74.98;97073.31;5022540;28;20034;-80
2021/09/18 10:57:45;;;;;;;21.70;10.30;;;;;;;24.31;75.96;97074.56;5008632;28;20476;-77
2021/09/18 11:00:20;;;;;;;20.17;11.15;;;;;;;24.26;78.98;97076.00;5007978;28;20082;-88
2021/09/18 11:02:49;;;;;;;16.67;10.68;;;;;;;24.19;76.42;97079.69;5028838;28;20025;-77
2021/09/18 11:05:18;;;;;;;20.85;10.02;;;;;;;24.09;78.43;97084.56;5032828;28;20432;-76
2021/09/18 11:07:48;;;;;;;14.60;9.40;;;;;;;23.86;75.36;97079.22;5032295;28;20057;-77
2021/09/18 11:10:22;;;;;;;16.85;10.38;;;;;;;23.91;76.62;97097.78;5015553;28;20022;-78
2021/09/18 11:13:07;;;;;;;21.50;10.77;;;;;;;23.71;82.80;97092.03;5028809;28;20026;-76
2021/09/18 11:15:47;;;;;;;22.77;9.50;;;;;;;23.64;78.64;97081.03;5032529;28;20033;-78
2021/09/18 11:18:43;;;;;;;19.27;8.02;;;;;;;23.47;79.02;97062.28;5013862;28;20025;-77
2021/09/18 11:21:25;;;;;;;8.63;5.20;;;;;;;23.41;73.28;97079.41;5018590;28;20021;-77
2021/09/18 11:23:56;;;;;;;14.00;5.28;;;;;;;23.30;76.56;97088.84;5014789;28;20033;-77
2021/09/18 11:26:44;;;;;;;8.07;5.63;;;;;;;23.23;78.90;97086.00;5009700;28;20412;-74
2021/09/18 11:29:09;;;;;;;8.75;4.72;;;;;;;22.90;76.23;97075.56;5018940;28;20394;-77
2021/09/18 11:31:40;;;;;;;7.47;4.55;;;;;;;22.83;71.84;97067.25;5033706;28;20032;-78